Time;durP1;ratioP1;P1;durP2;ratioP2;P2;SDS_P1;SDS_P2;PMS_P1;PMS_P2;Temp;Humidity;BMP_temperature;BMP_pressure;BME280_temperature;BME280_humidity;BME280_pressure;Samples;Min_cycle;Max_cycle;Signal;HPM_P1;HPM_P2
2022/04/11 00:01:29;;;;;;;;;;;2.10;99.90;;;;;;5075041;28;19909;-40
2022/04/11 00:03:54;;;;;;;;;;;2.20;99.90;;;;;;5073947;28;19913;-41
2022/04/11 00:06:20;;;;;;;;;;;2.10;99.90;;;;;;5074696;28;19913;-41
2022/04/11 00:08:45;;;;;;;;;;;2.10;99.90;;;;;;5074997;28;19912;-41
2022/04/11 00:11:11;;;;;;;;;;;2.10;99.90;;;;;;5074582;28;20270;-41
2022/04/11 00:13:37;;;;;;;;;;;2.10;99.90;;;;;;5107617;28;19912;-42
2022/04/11 00:16:02;;;;;;;;;;;2.20;99.90;;;;;;5074781;28;19930;-41
2022/04/11 00:18:28;;;;;;;;;;;2.20;99.90;;;;;;5075120;28;19915;-42
2022/04/11 00:20:53;;;;;;;;;;;2.10;99.90;;;;;;5074732;28;19914;-41
2022/04/11 00:23:19;;;;;;;;;;;2.10;99.90;;;;;;5074415;28;19962;-41
2022/04/11 00:25:44;;;;;;;;;;;2.10;99.90;;;;;;5074643;28;20026;-41
2022/04/11 00:28:10;;;;;;;;;;;2.10;99.90;;;;;;5074472;28;20390;-41
2022/04/11 00:30:35;;;;;;;;;;;2.00;99.90;;;;;;5074458;28;19981;-42
2022/04/11 00:33:01;;;;;;;;;;;2.00;99.90;;;;;;5074478;28;19920;-42
2022/04/11 00:35:27;;;;;;;;;;;2.00;99.90;;;;;;5074426;28;19908;-42
2022/04/11 00:37:52;;;;;;;;;;;2.00;99.90;;;;;;5074109;28;20315;-42
2022/04/11 00:40:19;;;;;;;;;;;2.00;99.90;;;;;;5074064;28;19912;-41
2022/04/11 00:42:47;;;;;;;;;;;2.00;99.90;;;;;;5074286;28;19908;-41
2022/04/11 00:45:13;;;;;;;;;;;2.10;99.90;;;;;;5074317;28;19909;-40
2022/04/11 00:47:39;;;;;;;;;;;2.10;99.90;;;;;;5073978;28;19915;-40
2022/04/11 00:50:07;;;;;;;;;;;2.10;99.90;;;;;;5073885;28;20464;-40
2022/04/11 00:52:35;;;;;;;;;;;2.10;99.90;;;;;;5073955;28;19908;-40
2022/04/11 00:55:00;;;;;;;;;;;2.10;99.90;;;;;;5074194;28;19966;-41
2022/04/11 00:57:26;;;;;;;;;;;2.10;99.90;;;;;;5073826;28;19908;-41
2022/04/11 00:59:52;;;;;;;;;;;2.10;99.90;;;;;;5073800;28;20334;-41
2022/04/11 01:02:17;;;;;;;;;;;2.10;99.90;;;;;;5073797;28;19913;-41
2022/04/11 01:04:43;;;;;;;;;;;2.10;99.90;;;;;;5074096;28;20312;-41
2022/04/11 01:07:08;;;;;;;;;;;2.10;99.90;;;;;;5074024;28;19908;-41
2022/04/11 01:09:34;;;;;;;;;;;2.10;99.90;;;;;;5073663;28;20415;-41
2022/04/11 01:12:01;;;;;;;;;;;2.10;99.90;;;;;;5073792;28;20410;-41
2022/04/11 01:14:26;;;;;;;;;;;2.10;99.90;;;;;;5073375;28;19955;-41
2022/04/11 01:16:52;;;;;;;;;;;2.00;99.90;;;;;;5073724;28;19951;-41
2022/04/11 01:19:18;;;;;;;;;;;2.00;99.90;;;;;;5073523;28;19995;-42
2022/04/11 01:21:44;;;;;;;;;;;2.00;99.90;;;;;;5073773;28;19917;-40
2022/04/11 01:24:09;;;;;;;;;;;2.00;99.90;;;;;;5073495;28;19915;-40
2022/04/11 01:26:35;;;;;;;;;;;1.90;99.90;;;;;;5073465;28;19912;-40
2022/04/11 01:29:02;;;;;;;;;;;1.90;99.90;;;;;;5073437;28;19914;-40
2022/04/11 01:31:27;;;;;;;;;;;1.90;99.90;;;;;;5073153;28;20007;-41
2022/04/11 01:33:53;;;;;;;;;;;1.90;99.90;;;;;;5073348;28;19955;-40
2022/04/11 01:36:19;;;;;;;;;;;1.90;99.90;;;;;;5073598;28;20282;-40
2022/04/11 01:38:44;;;;;;;;;;;1.90;99.90;;;;;;5073391;28;19915;-41
2022/04/11 01:41:10;;;;;;;;;;;1.90;99.90;;;;;;5073648;28;20373;-41
2022/04/11 01:43:35;;;;;;;;;;;1.80;99.90;;;;;;5073626;28;19912;-41
2022/04/11 01:46:01;;;;;;;;;;;1.80;99.90;;;;;;5072478;28;19947;-40
2022/04/11 01:48:26;;;;;;;;;;;1.80;99.90;;;;;;5073602;28;19920;-40
2022/04/11 01:50:52;;;;;;;;;;;1.80;99.90;;;;;;5073222;28;20407;-41
2022/04/11 01:53:18;;;;;;;;;;;1.70;99.90;;;;;;5073355;28;20384;-40
2022/04/11 01:55:44;;;;;;;;;;;1.80;99.90;;;;;;5073304;28;19909;-41
2022/04/11 01:58:10;;;;;;;;;;;1.80;99.90;;;;;;5073492;28;20065;-41
2022/04/11 02:00:36;;;;;;;;;;;1.80;99.90;;;;;;5073475;28;20340;-41
2022/04/11 02:03:02;;;;;;;;;;;1.80;99.90;;;;;;5073479;28;19909;-41
2022/04/11 02:05:28;;;;;;;;;;;1.80;99.90;;;;;;5073275;28;19908;-41
2022/04/11 02:07:54;;;;;;;;;;;1.90;99.90;;;;;;5073229;28;19961;-41
2022/04/11 02:10:20;;;;;;;;;;;1.90;99.90;;;;;;5073374;28;19913;-40
2022/04/11 02:12:47;;;;;;;;;;;1.90;99.90;;;;;;5073376;28;19978;-41
2022/04/11 02:15:13;;;;;;;;;;;1.90;99.90;;;;;;5072496;28;20366;-42
2022/04/11 02:17:38;;;;;;;;;;;1.90;99.90;;;;;;5073387;28;19995;-42
2022/04/11 02:20:05;;;;;;;;;;;1.90;99.90;;;;;;5073389;28;19940;-41
2022/04/11 02:22:46;;;;;;;;;;;1.90;99.90;;;;;;5073287;28;19999;-40
2022/04/11 02:25:12;;;;;;;;;;;2.00;99.90;;;;;;5073220;28;20006;-39
2022/04/11 02:27:38;;;;;;;;;;;2.00;99.90;;;;;;5108165;28;19944;-41
2022/04/11 02:30:04;;;;;;;;;;;2.00;99.90;;;;;;5076753;28;19913;-40
2022/04/11 02:32:29;;;;;;;;;;;2.00;99.90;;;;;;5076752;28;19920;-41
2022/04/11 02:34:55;;;;;;;;;;;2.00;99.90;;;;;;5076860;28;20370;-41
2022/04/11 02:37:21;;;;;;;;;;;2.00;99.90;;;;;;5109274;28;19916;-41
2022/04/11 02:39:46;;;;;;;;;;;1.90;99.90;;;;;;5076394;28;19915;-41
2022/04/11 02:42:32;;;;;;;;;;;1.90;99.90;;;;;;5076560;28;20273;-40
2022/04/11 02:44:58;;;;;;;;;;;1.90;99.90;;;;;;5076479;28;19908;-40
2022/04/11 02:47:23;;;;;;;;;;;1.90;99.90;;;;;;5076212;28;20370;-41
2022/04/11 02:49:49;;;;;;;;;;;1.90;99.90;;;;;;5076468;28;19916;-41
2022/04/11 02:52:15;;;;;;;;;;;1.90;99.90;;;;;;5076171;28;20235;-41
2022/04/11 02:54:41;;;;;;;;;;;1.90;99.90;;;;;;5076129;28;20415;-41
2022/04/11 02:57:06;;;;;;;;;;;1.80;99.90;;;;;;5076053;28;19943;-41
2022/04/11 02:59:33;;;;;;;;;;;1.80;99.90;;;;;;5076039;28;19915;-41
2022/04/11 03:01:59;;;;;;;;;;;1.80;99.90;;;;;;5076027;28;19913;-40
2022/04/11 03:04:24;;;;;;;;;;;1.70;99.90;;;;;;5091741;28;19999;-41
2022/04/11 03:06:50;;;;;;;;;;;1.80;99.90;;;;;;5075922;28;19947;-41
2022/04/11 03:09:15;;;;;;;;;;;1.70;99.90;;;;;;5075666;28;20004;-41
2022/04/11 03:11:41;;;;;;;;;;;1.70;99.90;;;;;;5091632;28;19916;-41
2022/04/11 03:14:06;;;;;;;;;;;1.70;99.90;;;;;;5076374;28;19934;-41
2022/04/11 03:16:32;;;;;;;;;;;1.70;99.90;;;;;;5075710;28;19908;-41
2022/04/11 03:18:58;;;;;;;;;;;1.70;99.90;;;;;;5075960;28;19915;-41
2022/04/11 03:21:23;;;;;;;;;;;1.70;99.90;;;;;;5108605;28;19995;-40
2022/04/11 03:23:49;;;;;;;;;;;1.80;99.90;;;;;;5108591;28;19909;-41
2022/04/11 03:26:14;;;;;;;;;;;1.80;99.90;;;;;;5108569;28;19915;-41
2022/04/11 03:28:40;;;;;;;;;;;1.80;99.90;;;;;;5075698;28;19944;-41
2022/04/11 03:31:05;;;;;;;;;;;1.80;99.90;;;;;;5075384;28;19927;-41
2022/04/11 03:33:31;;;;;;;;;;;1.80;99.90;;;;;;5075939;28;19920;-41
2022/04/11 03:35:56;;;;;;;;;;;1.80;99.90;;;;;;5075247;28;19970;-41
2022/04/11 03:38:22;;;;;;;;;;;1.80;99.90;;;;;;5074045;28;19932;-41
2022/04/11 03:40:47;;;;;;;;;;;1.80;99.90;;;;;;5075654;28;19908;-41
2022/04/11 03:43:13;;;;;;;;;;;1.80;99.90;;;;;;5075483;28;19916;-41
2022/04/11 03:45:38;;;;;;;;;;;1.80;99.90;;;;;;5075327;28;19908;-41
2022/04/11 03:48:04;;;;;;;;;;;1.70;99.90;;;;;;5075103;28;19908;-41
2022/04/11 03:50:29;;;;;;;;;;;1.70;99.90;;;;;;5074921;28;19920;-41
2022/04/11 03:52:55;;;;;;;;;;;1.70;99.90;;;;;;5075300;28;20419;-41
2022/04/11 03:55:20;;;;;;;;;;;1.70;99.90;;;;;;5075042;28;20235;-41
2022/04/11 03:57:46;;;;;;;;;;;1.70;99.90;;;;;;5074968;28;19999;-41
2022/04/11 04:00:12;;;;;;;;;;;1.70;99.90;;;;;;5074790;28;20370;-41
2022/04/11 04:02:38;;;;;;;;;;;1.70;99.90;;;;;;5107666;28;19916;-41
2022/04/11 04:05:04;;;;;;;;;;;1.60;99.90;;;;;;5073563;28;19928;-41
2022/04/11 04:07:29;;;;;;;;;;;1.70;99.90;;;;;;5074891;28;19913;-41
2022/04/11 04:09:54;;;;;;;;;;;1.60;99.90;;;;;;5074716;28;19962;-40
2022/04/11 04:12:20;;;;;;;;;;;1.60;99.90;;;;;;5075066;28;19935;-40
2022/04/11 04:14:47;;;;;;;;;;;1.70;99.90;;;;;;5073353;28;19912;-41
2022/04/11 04:17:12;;;;;;;;;;;1.70;99.90;;;;;;5074602;28;19944;-40
2022/04/11 04:19:38;;;;;;;;;;;1.70;99.90;;;;;;5074430;28;19915;-41
2022/04/11 04:22:03;;;;;;;;;;;1.60;99.90;;;;;;5074188;28;19909;-41
2022/04/11 04:24:30;;;;;;;;;;;1.70;99.90;;;;;;5074432;28;19916;-41
2022/04/11 04:26:56;;;;;;;;;;;1.70;99.90;;;;;;5074084;28;19919;-42
2022/04/11 04:29:21;;;;;;;;;;;1.70;99.90;;;;;;5074286;28;19924;-42
2022/04/11 04:31:49;;;;;;;;;;;1.70;99.90;;;;;;5074136;28;19928;-41
2022/04/11 04:34:14;;;;;;;;;;;1.70;99.90;;;;;;5074473;28;19908;-41
2022/04/11 04:36:40;;;;;;;;;;;1.80;99.90;;;;;;5073985;28;19908;-41
2022/04/11 04:39:05;;;;;;;;;;;1.70;99.90;;;;;;5074039;28;19912;-40
2022/04/11 04:41:31;;;;;;;;;;;1.70;99.90;;;;;;5073959;28;19908;-41
2022/04/11 04:43:56;;;;;;;;;;;1.80;99.90;;;;;;5073764;28;19908;-41
2022/04/11 04:46:22;;;;;;;;;;;1.80;99.90;;;;;;5089812;28;19957;-41
2022/04/11 04:48:47;;;;;;;;;;;1.90;99.90;;;;;;5073561;28;19908;-41
2022/04/11 04:51:13;;;;;;;;;;;2.00;99.90;;;;;;5073430;28;19919;-41
2022/04/11 04:53:39;;;;;;;;;;;2.00;99.90;;;;;;5106585;28;19912;-41
2022/04/11 04:56:04;;;;;;;;;;;2.00;99.90;;;;;;5073673;28;19978;-41
2022/04/11 04:58:30;;;;;;;;;;;2.10;99.90;;;;;;5073989;28;19908;-42
2022/04/11 05:00:55;;;;;;;;;;;2.10;99.90;;;;;;5073419;28;19913;-43
2022/04/11 05:03:21;;;;;;;;;;;2.20;99.90;;;;;;5073573;28;19916;-41
2022/04/11 05:05:46;;;;;;;;;;;2.20;99.90;;;;;;5073583;28;19909;-41
2022/04/11 05:08:12;;;;;;;;;;;2.30;99.90;;;;;;5073256;28;19909;-42
2022/04/11 05:10:38;;;;;;;;;;;2.40;99.90;;;;;;5073418;28;19912;-42
2022/04/11 05:13:03;;;;;;;;;;;2.60;99.90;;;;;;5089334;28;19989;-41
2022/04/11 05:15:29;;;;;;;;;;;2.60;99.90;;;;;;5073565;28;19909;-41
2022/04/11 05:17:55;;;;;;;;;;;2.70;99.90;;;;;;5072402;28;19909;-41
2022/04/11 05:20:20;;;;;;;;;;;2.80;99.90;;;;;;5089034;28;19909;-41
2022/04/11 05:22:46;;;;;;;;;;;2.90;99.90;;;;;;5073283;28;20253;-42
2022/04/11 05:25:11;;;;;;;;;;;3.00;99.90;;;;;;5073602;28;19962;-42
2022/04/11 05:27:37;;;;;;;;;;;3.00;99.90;;;;;;5072909;28;19916;-41
2022/04/11 05:30:05;;;;;;;;;;;3.10;99.90;;;;;;5072723;28;20012;-41
2022/04/11 05:32:31;;;;;;;;;;;3.20;99.90;;;;;;5073038;28;20365;-41
2022/04/11 05:34:57;;;;;;;;;;;3.20;99.90;;;;;;5072971;28;19948;-41
2022/04/11 05:37:22;;;;;;;;;;;3.30;99.90;;;;;;5072797;28;20393;-42
2022/04/11 05:39:48;;;;;;;;;;;3.40;99.90;;;;;;5105639;28;19924;-41
2022/04/11 05:42:13;;;;;;;;;;;3.40;99.90;;;;;;5073268;28;19913;-42
2022/04/11 05:44:39;;;;;;;;;;;3.50;99.90;;;;;;5072737;28;19915;-41
2022/04/11 05:47:04;;;;;;;;;;;3.50;99.90;;;;;;5073125;28;20277;-40
2022/04/11 05:49:30;;;;;;;;;;;3.60;99.90;;;;;;5073078;28;19909;-42
2022/04/11 05:51:55;;;;;;;;;;;3.80;99.90;;;;;;5072937;28;20365;-41
2022/04/11 05:54:21;;;;;;;;;;;3.80;99.90;;;;;;5105428;28;20024;-42
2022/04/11 05:56:46;;;;;;;;;;;3.80;99.90;;;;;;5072604;28;19931;-42
2022/04/11 05:59:12;;;;;;;;;;;3.80;99.90;;;;;;5105381;28;19991;-42
2022/04/11 06:01:40;;;;;;;;;;;3.80;99.90;;;;;;5074090;28;20412;-41
2022/04/11 06:04:05;;;;;;;;;;;3.80;99.90;;;;;;5076645;28;19908;-42
2022/04/11 06:06:31;;;;;;;;;;;3.90;99.90;;;;;;5076380;28;19915;-42
2022/04/11 06:08:57;;;;;;;;;;;3.90;99.90;;;;;;5076396;28;20370;-41
2022/04/11 06:11:22;;;;;;;;;;;4.00;99.90;;;;;;5076749;28;19956;-42
2022/04/11 06:13:48;;;;;;;;;;;4.00;99.90;;;;;;5074892;28;19908;-43
2022/04/11 06:16:13;;;;;;;;;;;4.00;99.90;;;;;;5076045;28;19916;-42
2022/04/11 06:18:39;;;;;;;;;;;4.10;99.90;;;;;;5076344;28;19908;-42
2022/04/11 06:21:05;;;;;;;;;;;4.20;99.90;;;;;;5075965;28;19965;-49
2022/04/11 06:23:30;;;;;;;;;;;4.20;99.90;;;;;;5076221;28;20042;-42
2022/04/11 06:25:56;;;;;;;;;;;4.30;99.90;;;;;;5076154;28;19920;-42
2022/04/11 06:28:22;;;;;;;;;;;4.40;99.90;;;;;;5076407;28;19908;-42
2022/04/11 06:30:47;;;;;;;;;;;4.50;99.90;;;;;;5091711;28;19928;-41
2022/04/11 06:33:13;;;;;;;;;;;4.60;99.90;;;;;;5076057;28;20006;-42
2022/04/11 06:35:38;;;;;;;;;;;4.60;99.90;;;;;;5075585;28;19909;-41
2022/04/11 06:38:04;;;;;;;;;;;4.60;99.90;;;;;;5075765;28;20274;-41
2022/04/11 06:40:29;;;;;;;;;;;4.60;99.90;;;;;;5075801;28;19915;-41
2022/04/11 06:42:55;;;;;;;;;;;4.60;99.90;;;;;;5076092;28;20011;-42
2022/04/11 06:45:21;;;;;;;;;;;4.70;99.90;;;;;;5075771;28;19908;-42
2022/04/11 06:47:48;;;;;;;;;;;4.70;99.90;;;;;;5075248;28;19916;-41
2022/04/11 06:50:13;;;;;;;;;;;4.80;99.90;;;;;;5075517;28;19916;-41
2022/04/11 06:52:39;;;;;;;;;;;4.90;99.90;;;;;;5075752;28;20366;-40
2022/04/11 06:55:05;;;;;;;;;;;5.00;99.90;;;;;;5075775;28;19915;-42
2022/04/11 06:57:31;;;;;;;;;;;4.90;99.90;;;;;;5075409;28;19956;-41
2022/04/11 06:59:56;;;;;;;;;;;5.00;99.90;;;;;;5075435;28;19920;-42
2022/04/11 07:02:22;;;;;;;;;;;5.00;99.90;;;;;;5075657;28;19915;-41
2022/04/11 07:04:47;;;;;;;;;;;5.10;99.90;;;;;;5091310;28;19908;-41
2022/04/11 07:07:13;;;;;;;;;;;5.10;99.90;;;;;;5075085;28;19909;-41
2022/04/11 07:09:38;;;;;;;;;;;5.20;99.90;;;;;;5074931;28;19954;-42
2022/04/11 07:12:04;;;;;;;;;;;5.20;99.90;;;;;;5075121;28;19938;-41
2022/04/11 07:14:29;;;;;;;;;;;5.20;99.90;;;;;;5075415;28;19970;-43
2022/04/11 07:16:55;;;;;;;;;;;5.30;99.90;;;;;;5075742;28;19913;-41
2022/04/11 07:19:20;;;;;;;;;;;5.50;99.90;;;;;;5075276;28;20288;-40
2022/04/11 07:21:46;;;;;;;;;;;5.60;99.90;;;;;;5075298;28;19912;-41
2022/04/11 07:24:12;;;;;;;;;;;5.70;99.90;;;;;;5075257;28;20274;-41
2022/04/11 07:26:39;;;;;;;;;;;5.80;99.90;;;;;;5075461;28;19908;-41
2022/04/11 07:29:04;;;;;;;;;;;5.80;99.90;;;;;;5074592;28;19991;-42
2022/04/11 07:31:30;;;;;;;;;;;6.00;99.90;;;;;;5073386;28;20425;-41
2022/04/11 07:33:55;;;;;;;;;;;6.00;99.90;;;;;;5075167;28;20001;-42
2022/04/11 07:36:21;;;;;;;;;;;6.30;99.90;;;;;;5074820;28;19908;-42
2022/04/11 07:38:46;;;;;;;;;;;6.20;99.90;;;;;;5074913;28;19963;-41
2022/04/11 07:41:12;;;;;;;;;;;6.20;99.90;;;;;;5073811;28;19908;-41
2022/04/11 07:43:38;;;;;;;;;;;6.20;99.90;;;;;;5075311;28;19909;-41
2022/04/11 07:46:05;;;;;;;;;;;6.40;99.90;;;;;;5074724;28;20051;-41
2022/04/11 07:48:31;;;;;;;;;;;6.50;99.90;;;;;;5074814;28;19930;-42
2022/04/11 07:50:56;;;;;;;;;;;7.00;99.90;;;;;;5074434;28;19913;-41
2022/04/11 07:53:22;;;;;;;;;;;7.50;99.90;;;;;;5074716;28;19970;-41
2022/04/11 07:55:47;;;;;;;;;;;7.60;99.90;;;;;;5074686;28;20359;-41
2022/04/11 07:58:15;;;;;;;;;;;7.90;99.90;;;;;;5074504;28;20332;-42
2022/04/11 08:00:41;;;;;;;;;;;8.00;99.90;;;;;;5073268;28;20283;-42
2022/04/11 08:03:06;;;;;;;;;;;8.00;99.90;;;;;;5074437;28;19957;-41
2022/04/11 08:05:32;;;;;;;;;;;8.00;99.90;;;;;;5073921;28;19915;-42
2022/04/11 08:07:59;;;;;;;;;;;8.10;99.90;;;;;;5089613;28;20266;-41
2022/04/11 08:10:25;;;;;;;;;;;8.10;99.90;;;;;;5072503;28;19912;-42
2022/04/11 08:12:52;;;;;;;;;;;8.10;99.90;;;;;;5074065;28;19920;-41
2022/04/11 08:15:17;;;;;;;;;;;8.10;99.90;;;;;;5074067;28;19908;-41
2022/04/11 08:17:43;;;;;;;;;;;8.00;99.90;;;;;;5073920;28;19998;-41
2022/04/11 08:20:08;;;;;;;;;;;7.90;99.90;;;;;;5073757;28;20289;-41
2022/04/11 08:22:34;;;;;;;;;;;7.90;99.90;;;;;;5073861;28;19908;-42
2022/04/11 08:24:59;;;;;;;;;;;7.90;99.90;;;;;;5073304;28;20304;-41
2022/04/11 08:27:25;;;;;;;;;;;8.00;99.90;;;;;;5089360;28;19943;-41
2022/04/11 08:29:50;;;;;;;;;;;8.10;99.90;;;;;;5073890;28;19959;-42
2022/04/11 08:32:18;;;;;;;;;;;8.30;99.90;;;;;;5073769;28;20452;-44
2022/04/11 08:34:44;;;;;;;;;;;8.30;99.90;;;;;;5073893;28;20003;-42
2022/04/11 08:37:09;;;;;;;;;;;8.30;99.90;;;;;;5073743;28;19993;-42
2022/04/11 08:39:35;;;;;;;;;;;8.40;99.90;;;;;;5073676;28;19919;-40
2022/04/11 08:42:01;;;;;;;;;;;8.50;99.90;;;;;;5074097;28;20343;-41
2022/04/11 08:44:27;;;;;;;;;;;8.50;99.90;;;;;;5073786;28;19908;-43
2022/04/11 08:46:54;;;;;;;;;;;8.70;99.90;;;;;;5073264;28;19936;-42
2022/04/11 08:49:20;;;;;;;;;;;8.50;99.90;;;;;;5073416;28;19963;-41
2022/04/11 08:51:46;;;;;;;;;;;8.50;99.90;;;;;;5072315;28;20351;-42
2022/04/11 08:54:13;;;;;;;;;;;8.50;99.90;;;;;;5073162;28;20334;-42
2022/04/11 08:56:39;;;;;;;;;;;8.70;99.90;;;;;;5072848;28;20000;-41
2022/04/11 08:59:05;;;;;;;;;;;8.80;99.90;;;;;;5073426;28;19999;-41
2022/04/11 09:01:32;;;;;;;;;;;9.10;99.90;;;;;;5073401;28;20003;-42
2022/04/11 09:03:58;;;;;;;;;;;9.30;99.90;;;;;;5073265;28;20432;-41
2022/04/11 09:06:23;;;;;;;;;;;9.30;99.90;;;;;;5073195;28;19909;-41
2022/04/11 09:08:53;;;;;;;;;;;9.40;99.90;;;;;;5073202;28;19912;-42
2022/04/11 09:11:29;;;;;;;;;;;9.60;99.90;;;;;;5073097;28;20306;-41
2022/04/11 09:13:55;;;;;;;;;;;9.80;99.90;;;;;;5073201;28;20231;-41
2022/04/11 09:16:20;;;;;;;;;;;9.60;98.70;;;;;;5072975;28;20424;-44
2022/04/11 09:18:47;;;;;;;;;;;9.70;98.90;;;;;;5073242;28;19913;-42
2022/04/11 09:21:13;;;;;;;;;;;9.60;98.90;;;;;;5073106;28;19915;-41
2022/04/11 09:23:38;;;;;;;;;;;9.20;99.30;;;;;;5072717;28;19908;-41
2022/04/11 09:26:19;;;;;;;;;;;9.40;98.40;;;;;;5072959;28;19916;-42
2022/04/11 09:29:01;;;;;;;;;;;9.10;98.00;;;;;;5073433;28;19961;-42
2022/04/11 09:31:27;;;;;;;;;;;9.30;98.50;;;;;;5071496;28;20023;-42
2022/04/11 09:33:53;;;;;;;;;;;9.50;98.40;;;;;;5073374;28;19956;-41
2022/04/11 09:36:20;;;;;;;;;;;9.80;98.50;;;;;;5075072;28;19916;-41
2022/04/11 09:39:01;;;;;;;;;;;9.90;97.50;;;;;;5077133;28;20044;-41
2022/04/11 09:41:28;;;;;;;;;;;9.90;97.10;;;;;;5076972;28;19908;-42
2022/04/11 09:43:54;;;;;;;;;;;9.70;97.00;;;;;;5077134;28;20035;-40
2022/04/11 09:46:19;;;;;;;;;;;10.10;97.30;;;;;;5076922;28;19916;-42
2022/04/11 09:48:45;;;;;;;;;;;10.30;98.10;;;;;;5077199;28;19908;-41
2022/04/11 09:51:13;;;;;;;;;;;10.50;97.20;;;;;;5076609;28;19912;-41
2022/04/11 09:53:39;;;;;;;;;;;10.80;98.00;;;;;;5077269;28;19946;-42
2022/04/11 09:56:05;;;;;;;;;;;11.00;98.10;;;;;;5076975;28;20256;-42
2022/04/11 09:58:32;;;;;;;;;;;11.10;96.10;;;;;;5077036;28;19909;-42
2022/04/11 10:00:58;;;;;;;;;;;11.10;96.80;;;;;;5077128;28;19924;-41
2022/04/11 10:03:24;;;;;;;;;;;11.20;96.30;;;;;;5076550;28;19924;-41
2022/04/11 10:05:50;;;;;;;;;;;11.30;96.50;;;;;;5076467;28;20350;-41
2022/04/11 10:08:15;;;;;;;;;;;11.50;96.50;;;;;;5076895;28;19920;-42
2022/04/11 10:10:42;;;;;;;;;;;11.40;95.70;;;;;;5076625;28;19913;-41
2022/04/11 10:13:12;;;;;;;;;;;11.50;95.60;;;;;;5076417;28;19919;-42
2022/04/11 10:15:38;;;;;;;;;;;11.00;95.50;;;;;;5076168;28;19908;-42
2022/04/11 10:18:05;;;;;;;;;;;10.40;96.30;;;;;;5075807;28;19909;-41
2022/04/11 10:20:33;;;;;;;;;;;10.60;96.00;;;;;;5076203;28;19915;-41
2022/04/11 10:23:02;;;;;;;;;;;11.10;95.80;;;;;;5076515;28;19909;-42
2022/04/11 10:25:28;;;;;;;;;;;11.20;94.60;;;;;;5076616;28;19908;-42
2022/04/11 10:28:13;;;;;;;;;;;11.60;95.40;;;;;;5076142;28;19962;-41
2022/04/11 10:30:38;;;;;;;;;;;11.70;93.70;;;;;;5076516;28;20355;-41
2022/04/11 10:33:04;;;;;;;;;;;11.80;94.30;;;;;;5076246;28;19927;-41
2022/04/11 10:35:34;;;;;;;;;;;11.90;93.90;;;;;;5074639;28;20247;-42
2022/04/11 10:37:59;;;;;;;;;;;11.90;93.70;;;;;;5075666;28;19966;-41
2022/04/11 10:40:28;;;;;;;;;;;11.90;94.30;;;;;;5076311;28;19909;-41
2022/04/11 10:43:08;;;;;;;;;;;11.80;94.30;;;;;;5075857;28;19915;-41
2022/04/11 10:45:35;;;;;;;;;;;11.90;96.00;;;;;;5076323;28;20401;-41
2022/04/11 10:48:01;;;;;;;;;;;12.10;94.30;;;;;;5075417;28;19962;-41
2022/04/11 10:50:27;;;;;;;;;;;12.30;94.00;;;;;;5075636;28;20355;-42
2022/04/11 10:52:54;;;;;;;;;;;12.10;93.60;;;;;;5076024;28;19908;-42
2022/04/11 10:55:22;;;;;;;;;;;12.00;94.70;;;;;;5076225;28;19944;-41
2022/04/11 10:57:50;;;;;;;;;;;12.20;95.60;;;;;;5075400;28;19952;-41
2022/04/11 11:00:17;;;;;;;;;;;12.20;93.10;;;;;;5075944;28;20007;-41
2022/04/11 11:02:59;;;;;;;;;;;12.30;94.00;;;;;;5075575;28;20286;-42
2022/04/11 11:05:31;;;;;;;;;;;12.60;93.50;;;;;;5075757;28;19915;-42
2022/04/11 11:08:05;;;;;;;;;;;12.50;93.70;;;;;;5075221;28;19913;-42
2022/04/11 11:10:41;;;;;;;;;;;12.70;93.40;;;;;;5075164;28;19916;-42
2022/04/11 11:13:27;;;;;;;;;;;12.30;93.40;;;;;;5075443;28;19908;-41
2022/04/11 11:15:54;;;;;;;;;;;12.70;92.50;;;;;;5075204;28;19908;-41
2022/04/11 11:18:19;;;;;;;;;;;12.60;92.80;;;;;;5075036;28;19909;-41
2022/04/11 11:20:55;;;;;;;;;;;12.60;91.80;;;;;;5075188;28;19916;-41
2022/04/11 11:23:23;;;;;;;;;;;12.40;92.10;;;;;;5075521;28;20278;-43
2022/04/11 11:25:49;;;;;;;;;;;12.50;91.10;;;;;;5107796;28;19958;-42
2022/04/11 11:28:15;;;;;;;;;;;12.70;91.10;;;;;;5090940;28;19995;-42
2022/04/11 11:30:40;;;;;;;;;;;12.90;91.80;;;;;;5075339;28;19928;-40
2022/04/11 11:33:07;;;;;;;;;;;12.90;90.70;;;;;;5075263;28;19924;-42
2022/04/11 11:35:33;;;;;;;;;;;12.40;91.70;;;;;;5107676;28;19997;-42
2022/04/11 11:38:04;;;;;;;;;;;12.80;92.20;;;;;;5074998;28;19944;-41
2022/04/11 11:40:30;;;;;;;;;;;13.00;92.50;;;;;;5075127;28;20054;-42
2022/04/11 11:42:56;;;;;;;;;;;13.10;92.70;;;;;;5073517;28;20354;-42
2022/04/11 11:45:28;;;;;;;;;;;13.30;91.70;;;;;;5075034;28;19908;-42
2022/04/11 11:47:54;;;;;;;;;;;12.90;91.40;;;;;;5074345;28;19909;-42
2022/04/11 11:50:20;;;;;;;;;;;12.90;91.00;;;;;;5074320;28;19939;-42
2022/04/11 11:52:56;;;;;;;;;;;12.60;91.50;;;;;;5074642;28;19934;-41
2022/04/11 11:55:22;;;;;;;;;;;12.80;91.40;;;;;;5106983;28;19908;-42
2022/04/11 11:58:01;;;;;;;;;;;12.80;90.10;;;;;;5074251;28;19931;-41
2022/04/11 12:00:32;;;;;;;;;;;13.00;90.50;;;;;;5073819;28;19908;-42
2022/04/11 12:05:42;;;;;;;;;;;13.50;90.50;;;;;;5074041;28;19931;-42
2022/04/11 12:08:08;;;;;;;;;;;13.50;90.20;;;;;;5074347;28;19967;-41
2022/04/11 12:10:35;;;;;;;;;;;13.60;90.70;;;;;;5074114;28;19924;-43
2022/04/11 12:13:00;;;;;;;;;;;13.90;91.30;;;;;;5074319;28;19909;-43
2022/04/11 12:15:33;;;;;;;;;;;14.00;89.70;;;;;;5074200;28;20338;-41
2022/04/11 12:18:02;;;;;;;;;;;14.00;88.60;;;;;;5074005;28;19908;-41
2022/04/11 12:20:30;;;;;;;;;;;14.00;87.50;;;;;;5074080;28;19908;-42
2022/04/11 12:22:59;;;;;;;;;;;13.70;90.20;;;;;;5073839;28;19958;-42
2022/04/11 12:25:29;;;;;;;;;;;13.60;88.20;;;;;;5074044;28;20363;-42
2022/04/11 12:28:13;;;;;;;;;;;13.70;87.60;;;;;;5073859;28;19909;-42
2022/04/11 12:30:44;;;;;;;;;;;13.70;87.00;;;;;;5073745;28;20350;-42
2022/04/11 12:33:30;;;;;;;;;;;13.60;87.60;;;;;;5072697;28;20374;-41
2022/04/11 12:36:06;;;;;;;;;;;13.40;88.80;;;;;;5073727;28;19950;-41
2022/04/11 12:38:38;;;;;;;;;;;13.80;88.70;;;;;;5073775;28;19969;-41
2022/04/11 12:41:04;;;;;;;;;;;13.60;88.20;;;;;;5073746;28;19909;-41
2022/04/11 12:43:29;;;;;;;;;;;13.70;89.20;;;;;;5073643;28;20267;-41
2022/04/11 12:46:05;;;;;;;;;;;13.60;88.90;;;;;;5089131;28;19913;-41
2022/04/11 12:48:51;;;;;;;;;;;13.60;88.10;;;;;;5072295;28;19909;-42
2022/04/11 12:51:16;;;;;;;;;;;14.00;89.50;;;;;;5072269;28;19954;-42
2022/04/11 12:53:42;;;;;;;;;;;14.00;88.20;;;;;;5073487;28;19951;-42
2022/04/11 12:56:08;;;;;;;;;;;13.80;87.20;;;;;;5073587;28;19908;-42
2022/04/11 12:58:37;;;;;;;;;;;13.70;88.00;;;;;;5073537;28;20138;-42
2022/04/11 13:01:02;;;;;;;;;;;13.90;87.60;;;;;;5073269;28;19916;-42
2022/04/11 13:03:30;;;;;;;;;;;14.20;89.40;;;;;;5073326;28;19909;-41
2022/04/11 13:05:57;;;;;;;;;;;14.30;89.10;;;;;;5073022;28;19916;-42
2022/04/11 13:08:24;;;;;;;;;;;14.20;86.20;;;;;;5088456;28;19931;-41
2022/04/11 13:10:49;;;;;;;;;;;14.50;87.40;;;;;;5088044;28;19916;-42
2022/04/11 13:13:15;;;;;;;;;;;14.40;86.20;;;;;;5073204;28;19934;-41
2022/04/11 13:18:24;;;;;;;;;;;14.20;86.40;;;;;;5072654;28;19908;-42
2022/04/11 13:18:26;;;;;;;;;;;14.20;86.90;;;;;;5073094;28;19916;-42
2022/04/11 13:20:52;;;;;;;;;;;14.50;89.00;;;;;;5073151;28;19977;-44
2022/04/11 13:23:18;;;;;;;;;;;14.60;87.20;;;;;;5073169;28;19912;-42
2022/04/11 13:25:43;;;;;;;;;;;14.80;85.50;;;;;;5073041;28;19913;-42
2022/04/11 13:28:09;;;;;;;;;;;14.60;84.90;;;;;;5071957;28;20343;-41
2022/04/11 13:30:35;;;;;;;;;;;14.60;89.20;;;;;;5072984;28;19917;-43
2022/04/11 13:33:00;;;;;;;;;;;14.80;86.20;;;;;;5073062;28;19928;-41
2022/04/11 13:35:28;;;;;;;;;;;14.80;84.80;;;;;;5071954;28;20222;-42
2022/04/11 13:37:53;;;;;;;;;;;14.70;85.50;;;;;;5073127;28;19966;-42
2022/04/11 13:40:19;;;;;;;;;;;14.60;88.40;;;;;;5073108;28;20374;-41
2022/04/11 13:42:44;;;;;;;;;;;14.70;83.90;;;;;;5072807;28;19915;-42
2022/04/11 13:45:10;;;;;;;;;;;14.70;85.80;;;;;;5073131;28;20347;-42
2022/04/11 13:47:36;;;;;;;;;;;14.50;87.00;;;;;;5072791;28;19919;-42
2022/04/11 13:50:01;;;;;;;;;;;14.70;85.20;;;;;;5072399;28;19909;-43
2022/04/11 13:52:27;;;;;;;;;;;14.80;83.40;;;;;;5071653;28;19913;-42
2022/04/11 13:54:52;;;;;;;;;;;14.80;84.60;;;;;;5072745;28;20335;-42
2022/04/11 13:57:18;;;;;;;;;;;14.60;83.80;;;;;;5072609;28;19939;-42
2022/04/11 13:59:43;;;;;;;;;;;14.70;83.80;;;;;;5088214;28;19909;-44
2022/04/11 14:02:12;;;;;;;;;;;14.70;83.30;;;;;;5072517;28;19908;-42
2022/04/11 14:04:38;;;;;;;;;;;14.80;82.40;;;;;;5072600;28;19916;-42
2022/04/11 14:07:04;;;;;;;;;;;14.90;84.80;;;;;;5072706;28;19916;-43
2022/04/11 14:09:29;;;;;;;;;;;15.10;82.60;;;;;;5072710;28;19930;-41
2022/04/11 14:11:56;;;;;;;;;;;14.80;82.30;;;;;;5072721;28;20346;-42
2022/04/11 14:14:22;;;;;;;;;;;14.90;83.50;;;;;;5072585;28;19916;-43
2022/04/11 14:16:48;;;;;;;;;;;15.00;82.40;;;;;;5072428;28;19999;-42
2022/04/11 14:19:13;;;;;;;;;;;14.90;80.60;;;;;;5072657;28;19952;-42
2022/04/11 14:21:39;;;;;;;;;;;14.80;81.30;;;;;;5072651;28;19916;-41
2022/04/11 14:24:04;;;;;;;;;;;14.80;81.40;;;;;;5076014;28;20426;-43
2022/04/11 14:26:30;;;;;;;;;;;15.00;80.90;;;;;;5092458;28;19908;-42